Main page
METAR-TAF:

METAR-TAF

Airports :

Montpellier, France

Montpellier–Méditerranée Airport

latitude: 43-35N, longitude: 003-58E, elevation: 5 m

Current weather observation

The report was made 33 minutes ago, at 01:30 UTC
Wind 6 kt from the North
Temperature 15°C
Humidity 77%
Pressure 1017 hPa
Visibility 10 km or more
no clouds below 1500 m and no cumulonimbus

METAR: LFMT 290130Z AUTO 01006KT CAVOK 15/11 Q1017 TEMPO 4000 BR BKN005

Time: 04:03 (02:03 UTC)

Forecast

The report was made 6 hours and 3 minutes ago, at 20:00 UTC
Forecast valid from 28 at 21 UTC to 29 at 21 UTC
Wind 3 kt from variable directions
Visibility 10 km or more
no clouds below 1500 m and no cumulonimbus
Temporary
from 28 at 23 UTC to 29 at 08 UTC
Broken clouds at a height of 500 ft
Probability 30% :
Temporary
from 29 at 01 UTC to 29 at 06 UTC
Visibility: 4000 m
mist
Becoming
from 29 at 09 UTC to 29 at 11 UTC
Wind 10 kt from the South

TAF: LFMT 282000Z 2821/2921 VRB03KT CAVOK TEMPO 2823/2908 BKN005 PROB30 TEMPO 2901/2906 4000 BR BECMG 2909/2911 18010KT

Weather observations and forecasts of more than 4000 airports (METAR and TAF reports).

The available stations are represented by yellow and red dots on the map.

Hover mouse over dot to see the name of the station.

Then click to see weather observations and forecasts.

To change the map : click on the green buttons with a black cross to zoom in, on the green button with a dash to zoom out, or on the green arrows for adjacent maps.


METAR-TAF: